sensor_id;sensor_type;location;lat;lon;timestamp;P1;durP1;ratioP1;P2;durP2;ratioP2
16735;SDS011;17990;49.548;9.730;2023-02-28T00:00:10;4.47;;;2.53;;
16735;SDS011;17990;49.548;9.730;2023-02-28T00:02:40;3.40;;;2.60;;
16735;SDS011;17990;49.548;9.730;2023-02-28T00:05:09;3.17;;;2.37;;
16735;SDS011;17990;49.548;9.730;2023-02-28T00:07:37;5.13;;;3.00;;
16735;SDS011;17990;49.548;9.730;2023-02-28T00:10:06;8.73;;;3.10;;
16735;SDS011;17990;49.548;9.730;2023-02-28T00:12:35;4.87;;;2.50;;
16735;SDS011;17990;49.548;9.730;2023-02-28T00:15:03;5.67;;;2.50;;
16735;SDS011;17990;49.548;9.730;2023-02-28T00:17:32;5.03;;;2.90;;
16735;SDS011;17990;49.548;9.730;2023-02-28T00:19:59;4.83;;;2.80;;
16735;SDS011;17990;49.548;9.730;2023-02-28T00:22:36;4.70;;;2.90;;
16735;SDS011;17990;49.548;9.730;2023-02-28T00:25:06;5.10;;;2.67;;
16735;SDS011;17990;49.548;9.730;2023-02-28T00:27:34;4.40;;;2.33;;
16735;SDS011;17990;49.548;9.730;2023-02-28T00:30:02;4.07;;;2.80;;
16735;SDS011;17990;49.548;9.730;2023-02-28T00:32:30;4.17;;;3.00;;
16735;SDS011;17990;49.548;9.730;2023-02-28T00:34:57;4.83;;;2.77;;
16735;SDS011;17990;49.548;9.730;2023-02-28T00:37:24;4.23;;;2.53;;
16735;SDS011;17990;49.548;9.730;2023-02-28T00:39:52;4.47;;;2.60;;
16735;SDS011;17990;49.548;9.730;2023-02-28T00:42:20;4.83;;;2.87;;
16735;SDS011;17990;49.548;9.730;2023-02-28T00:44:47;3.90;;;2.80;;
16735;SDS011;17990;49.548;9.730;2023-02-28T00:47:14;3.77;;;2.37;;
16735;SDS011;17990;49.548;9.730;2023-02-28T00:49:42;4.57;;;2.80;;
16735;SDS011;17990;49.548;9.730;2023-02-28T00:52:09;4.77;;;2.83;;
16735;SDS011;17990;49.548;9.730;2023-02-28T00:54:36;4.67;;;2.87;;
16735;SDS011;17990;49.548;9.730;2023-02-28T00:57:04;3.80;;;2.60;;
16735;SDS011;17990;49.548;9.730;2023-02-28T00:59:32;5.97;;;3.20;;
16735;SDS011;17990;49.548;9.730;2023-02-28T01:02:00;5.10;;;2.80;;
16735;SDS011;17990;49.548;9.730;2023-02-28T01:04:27;4.73;;;3.00;;
16735;SDS011;17990;49.548;9.730;2023-02-28T01:06:54;3.47;;;2.77;;
16735;SDS011;17990;49.548;9.730;2023-02-28T01:09:22;3.33;;;2.57;;
16735;SDS011;17990;49.548;9.730;2023-02-28T01:11:49;5.10;;;2.47;;
16735;SDS011;17990;49.548;9.730;2023-02-28T01:14:16;3.57;;;2.50;;
16735;SDS011;17990;49.548;9.730;2023-02-28T01:16:46;4.13;;;2.73;;
16735;SDS011;17990;49.548;9.730;2023-02-28T01:19:13;4.03;;;2.60;;
16735;SDS011;17990;49.548;9.730;2023-02-28T01:21:40;4.03;;;2.70;;
16735;SDS011;17990;49.548;9.730;2023-02-28T01:24:07;3.80;;;2.47;;
16735;SDS011;17990;49.548;9.730;2023-02-28T01:26:35;4.70;;;2.80;;
16735;SDS011;17990;49.548;9.730;2023-02-28T01:29:02;4.40;;;2.80;;
16735;SDS011;17990;49.548;9.730;2023-02-28T01:31:29;5.37;;;3.17;;
16735;SDS011;17990;49.548;9.730;2023-02-28T01:33:58;3.97;;;2.90;;
16735;SDS011;17990;49.548;9.730;2023-02-28T01:36:25;4.27;;;3.10;;
16735;SDS011;17990;49.548;9.730;2023-02-28T01:38:52;5.17;;;3.17;;
16735;SDS011;17990;49.548;9.730;2023-02-28T01:41:20;6.30;;;3.40;;
16735;SDS011;17990;49.548;9.730;2023-02-28T01:43:53;4.67;;;2.80;;
16735;SDS011;17990;49.548;9.730;2023-02-28T01:46:31;5.30;;;3.17;;
16735;SDS011;17990;49.548;9.730;2023-02-28T01:49:02;5.47;;;3.20;;
16735;SDS011;17990;49.548;9.730;2023-02-28T01:51:33;5.40;;;3.30;;
16735;SDS011;17990;49.548;9.730;2023-02-28T01:54:05;4.80;;;3.30;;
16735;SDS011;17990;49.548;9.730;2023-02-28T01:56:39;4.80;;;3.10;;
16735;SDS011;17990;49.548;9.730;2023-02-28T01:59:08;5.83;;;3.67;;
16735;SDS011;17990;49.548;9.730;2023-02-28T02:01:36;7.03;;;3.40;;
16735;SDS011;17990;49.548;9.730;2023-02-28T02:04:04;4.97;;;3.23;;
16735;SDS011;17990;49.548;9.730;2023-02-28T02:06:34;5.70;;;3.40;;
16735;SDS011;17990;49.548;9.730;2023-02-28T02:09:03;7.27;;;3.80;;
16735;SDS011;17990;49.548;9.730;2023-02-28T02:11:31;5.70;;;3.47;;
16735;SDS011;17990;49.548;9.730;2023-02-28T02:14:02;7.43;;;3.37;;
16735;SDS011;17990;49.548;9.730;2023-02-28T02:16:41;8.33;;;3.30;;
16735;SDS011;17990;49.548;9.730;2023-02-28T02:19:25;6.10;;;3.80;;
16735;SDS011;17990;49.548;9.730;2023-02-28T02:22:33;5.33;;;3.93;;
16735;SDS011;17990;49.548;9.730;2023-02-28T02:25:07;6.47;;;3.83;;
16735;SDS011;17990;49.548;9.730;2023-02-28T02:27:49;6.30;;;3.47;;
16735;SDS011;17990;49.548;9.730;2023-02-28T02:36:30;7.73;;;4.13;;
16735;SDS011;17990;49.548;9.730;2023-02-28T02:39:02;6.10;;;3.57;;
16735;SDS011;17990;49.548;9.730;2023-02-28T02:41:33;6.43;;;4.20;;
16735;SDS011;17990;49.548;9.730;2023-02-28T02:44:04;5.50;;;3.60;;
16735;SDS011;17990;49.548;9.730;2023-02-28T02:46:37;7.43;;;3.87;;
16735;SDS011;17990;49.548;9.730;2023-02-28T02:49:09;6.37;;;3.67;;
16735;SDS011;17990;49.548;9.730;2023-02-28T02:51:40;6.43;;;4.20;;
16735;SDS011;17990;49.548;9.730;2023-02-28T02:54:10;6.73;;;3.97;;
16735;SDS011;17990;49.548;9.730;2023-02-28T02:56:40;6.63;;;3.90;;
16735;SDS011;17990;49.548;9.730;2023-02-28T02:59:09;7.20;;;4.00;;
16735;SDS011;17990;49.548;9.730;2023-02-28T03:01:38;6.00;;;3.93;;
16735;SDS011;17990;49.548;9.730;2023-02-28T03:04:09;7.17;;;4.40;;
16735;SDS011;17990;49.548;9.730;2023-02-28T03:06:37;8.03;;;3.93;;
16735;SDS011;17990;49.548;9.730;2023-02-28T03:09:04;5.97;;;3.87;;
16735;SDS011;17990;49.548;9.730;2023-02-28T03:11:31;8.30;;;4.53;;
16735;SDS011;17990;49.548;9.730;2023-02-28T03:14:04;4.87;;;3.53;;
16735;SDS011;17990;49.548;9.730;2023-02-28T03:16:51;7.13;;;3.90;;
16735;SDS011;17990;49.548;9.730;2023-02-28T03:19:45;5.23;;;3.50;;
16735;SDS011;17990;49.548;9.730;2023-02-28T03:22:22;5.47;;;3.47;;
16735;SDS011;17990;49.548;9.730;2023-02-28T03:25:00;6.47;;;3.70;;
16735;SDS011;17990;49.548;9.730;2023-02-28T03:27:34;7.27;;;3.63;;
16735;SDS011;17990;49.548;9.730;2023-02-28T03:30:06;4.63;;;3.53;;
16735;SDS011;17990;49.548;9.730;2023-02-28T03:32:38;9.07;;;4.10;;
16735;SDS011;17990;49.548;9.730;2023-02-28T03:35:11;5.17;;;3.70;;
16735;SDS011;17990;49.548;9.730;2023-02-28T03:37:40;5.40;;;3.50;;
16735;SDS011;17990;49.548;9.730;2023-02-28T03:40:10;5.93;;;3.80;;
16735;SDS011;17990;49.548;9.730;2023-02-28T03:42:42;5.90;;;3.67;;
16735;SDS011;17990;49.548;9.730;2023-02-28T03:45:11;5.10;;;3.30;;
16735;SDS011;17990;49.548;9.730;2023-02-28T03:47:40;5.10;;;3.60;;
16735;SDS011;17990;49.548;9.730;2023-02-28T03:50:12;5.27;;;3.30;;
16735;SDS011;17990;49.548;9.730;2023-02-28T03:52:43;5.40;;;3.60;;
16735;SDS011;17990;49.548;9.730;2023-02-28T03:55:12;6.43;;;3.37;;
16735;SDS011;17990;49.548;9.730;2023-02-28T03:57:43;6.17;;;3.50;;
16735;SDS011;17990;49.548;9.730;2023-02-28T04:00:18;4.73;;;3.30;;
16735;SDS011;17990;49.548;9.730;2023-02-28T04:02:47;5.37;;;3.40;;
16735;SDS011;17990;49.548;9.730;2023-02-28T04:05:18;7.13;;;3.40;;
16735;SDS011;17990;49.548;9.730;2023-02-28T04:07:46;6.87;;;3.57;;
16735;SDS011;17990;49.548;9.730;2023-02-28T04:10:13;6.07;;;3.50;;
16735;SDS011;17990;49.548;9.730;2023-02-28T04:12:41;6.23;;;3.93;;
16735;SDS011;17990;49.548;9.730;2023-02-28T04:15:09;6.37;;;3.57;;
16735;SDS011;17990;49.548;9.730;2023-02-28T04:17:36;4.97;;;3.70;;
16735;SDS011;17990;49.548;9.730;2023-02-28T04:20:04;6.97;;;4.10;;
16735;SDS011;17990;49.548;9.730;2023-02-28T04:22:36;4.73;;;3.40;;
16735;SDS011;17990;49.548;9.730;2023-02-28T04:25:03;5.50;;;3.67;;
16735;SDS011;17990;49.548;9.730;2023-02-28T04:27:31;4.20;;;3.00;;
16735;SDS011;17990;49.548;9.730;2023-02-28T04:29:59;5.43;;;3.43;;
16735;SDS011;17990;49.548;9.730;2023-02-28T04:32:26;6.40;;;3.67;;
16735;SDS011;17990;49.548;9.730;2023-02-28T04:34:53;25.17;;;12.57;;
16735;SDS011;17990;49.548;9.730;2023-02-28T04:37:20;8.37;;;4.23;;
16735;SDS011;17990;49.548;9.730;2023-02-28T04:39:54;9.97;;;4.70;;
16735;SDS011;17990;49.548;9.730;2023-02-28T04:42:21;6.23;;;4.07;;
16735;SDS011;17990;49.548;9.730;2023-02-28T04:44:48;6.40;;;3.67;;
16735;SDS011;17990;49.548;9.730;2023-02-28T04:47:15;8.20;;;4.43;;
16735;SDS011;17990;49.548;9.730;2023-02-28T04:49:42;7.57;;;3.80;;
16735;SDS011;17990;49.548;9.730;2023-02-28T04:52:10;7.27;;;3.60;;
16735;SDS011;17990;49.548;9.730;2023-02-28T04:54:38;6.00;;;3.67;;
16735;SDS011;17990;49.548;9.730;2023-02-28T04:57:06;7.23;;;4.07;;
16735;SDS011;17990;49.548;9.730;2023-02-28T04:59:33;6.20;;;3.80;;
16735;SDS011;17990;49.548;9.730;2023-02-28T05:02:01;5.83;;;3.50;;
16735;SDS011;17990;49.548;9.730;2023-02-28T05:04:31;7.03;;;4.53;;
16735;SDS011;17990;49.548;9.730;2023-02-28T05:06:59;7.93;;;4.37;;
16735;SDS011;17990;49.548;9.730;2023-02-28T05:09:26;5.67;;;3.30;;
16735;SDS011;17990;49.548;9.730;2023-02-28T05:11:54;7.20;;;3.93;;
16735;SDS011;17990;49.548;9.730;2023-02-28T05:14:23;5.87;;;3.90;;
16735;SDS011;17990;49.548;9.730;2023-02-28T05:16:50;9.13;;;5.30;;
16735;SDS011;17990;49.548;9.730;2023-02-28T05:19:17;8.20;;;4.13;;
16735;SDS011;17990;49.548;9.730;2023-02-28T05:21:49;10.30;;;4.90;;
16735;SDS011;17990;49.548;9.730;2023-02-28T05:24:18;6.27;;;3.73;;
16735;SDS011;17990;49.548;9.730;2023-02-28T05:26:48;7.47;;;4.43;;
16735;SDS011;17990;49.548;9.730;2023-02-28T05:29:16;6.67;;;3.80;;
16735;SDS011;17990;49.548;9.730;2023-02-28T05:31:45;6.00;;;4.20;;
16735;SDS011;17990;49.548;9.730;2023-02-28T05:34:12;6.93;;;4.53;;
16735;SDS011;17990;49.548;9.730;2023-02-28T05:36:40;6.60;;;4.00;;
16735;SDS011;17990;49.548;9.730;2023-02-28T05:39:07;8.77;;;4.07;;
16735;SDS011;17990;49.548;9.730;2023-02-28T05:41:37;7.17;;;3.97;;
16735;SDS011;17990;49.548;9.730;2023-02-28T05:44:08;12.50;;;4.83;;
16735;SDS011;17990;49.548;9.730;2023-02-28T05:46:35;6.17;;;4.00;;
16735;SDS011;17990;49.548;9.730;2023-02-28T05:49:04;8.30;;;4.20;;
16735;SDS011;17990;49.548;9.730;2023-02-28T05:51:32;14.60;;;4.43;;
16735;SDS011;17990;49.548;9.730;2023-02-28T05:54:01;6.00;;;3.90;;
16735;SDS011;17990;49.548;9.730;2023-02-28T05:56:28;8.67;;;3.90;;
16735;SDS011;17990;49.548;9.730;2023-02-28T05:58:56;5.80;;;3.73;;
16735;SDS011;17990;49.548;9.730;2023-02-28T06:01:24;10.63;;;5.30;;
16735;SDS011;17990;49.548;9.730;2023-02-28T06:03:58;15.00;;;7.00;;
16735;SDS011;17990;49.548;9.730;2023-02-28T06:06:27;15.43;;;6.03;;
16735;SDS011;17990;49.548;9.730;2023-02-28T06:08:55;8.67;;;5.40;;
16735;SDS011;17990;49.548;9.730;2023-02-28T06:11:22;9.60;;;5.07;;
16735;SDS011;17990;49.548;9.730;2023-02-28T06:13:52;7.23;;;4.53;;
16735;SDS011;17990;49.548;9.730;2023-02-28T06:16:21;7.93;;;4.60;;
16735;SDS011;17990;49.548;9.730;2023-02-28T06:18:48;8.57;;;4.70;;
16735;SDS011;17990;49.548;9.730;2023-02-28T06:21:15;9.87;;;4.77;;
16735;SDS011;17990;49.548;9.730;2023-02-28T06:23:44;10.23;;;4.93;;
16735;SDS011;17990;49.548;9.730;2023-02-28T06:26:11;7.23;;;4.30;;
16735;SDS011;17990;49.548;9.730;2023-02-28T06:28:38;9.13;;;4.97;;
16735;SDS011;17990;49.548;9.730;2023-02-28T06:31:06;7.77;;;4.70;;
16735;SDS011;17990;49.548;9.730;2023-02-28T06:33:34;10.07;;;4.60;;
16735;SDS011;17990;49.548;9.730;2023-02-28T06:36:02;9.07;;;4.50;;
16735;SDS011;17990;49.548;9.730;2023-02-28T06:38:29;11.57;;;4.60;;
16735;SDS011;17990;49.548;9.730;2023-02-28T06:40:59;11.87;;;4.57;;
16735;SDS011;17990;49.548;9.730;2023-02-28T06:43:27;8.70;;;4.50;;
16735;SDS011;17990;49.548;9.730;2023-02-28T06:45:55;6.83;;;4.40;;
16735;SDS011;17990;49.548;9.730;2023-02-28T06:48:23;10.27;;;4.30;;
16735;SDS011;17990;49.548;9.730;2023-02-28T06:50:51;8.17;;;4.57;;
16735;SDS011;17990;49.548;9.730;2023-02-28T06:53:18;7.13;;;4.57;;
16735;SDS011;17990;49.548;9.730;2023-02-28T06:55:46;14.20;;;5.07;;
16735;SDS011;17990;49.548;9.730;2023-02-28T06:58:14;9.10;;;5.43;;
16735;SDS011;17990;49.548;9.730;2023-02-28T07:00:44;6.63;;;4.90;;
16735;SDS011;17990;49.548;9.730;2023-02-28T07:03:12;8.57;;;4.90;;
16735;SDS011;17990;49.548;9.730;2023-02-28T07:05:40;9.97;;;5.10;;
16735;SDS011;17990;49.548;9.730;2023-02-28T07:08:08;14.07;;;5.30;;
16735;SDS011;17990;49.548;9.730;2023-02-28T07:10:36;7.07;;;4.43;;
16735;SDS011;17990;49.548;9.730;2023-02-28T07:13:04;8.10;;;4.00;;
16735;SDS011;17990;49.548;9.730;2023-02-28T07:15:33;11.50;;;5.10;;
16735;SDS011;17990;49.548;9.730;2023-02-28T07:18:00;9.03;;;4.57;;
16735;SDS011;17990;49.548;9.730;2023-02-28T07:20:28;19.30;;;5.60;;
16735;SDS011;17990;49.548;9.730;2023-02-28T07:22:56;8.90;;;4.27;;
16735;SDS011;17990;49.548;9.730;2023-02-28T07:25:23;8.93;;;4.37;;
16735;SDS011;17990;49.548;9.730;2023-02-28T07:27:51;5.23;;;3.90;;
16735;SDS011;17990;49.548;9.730;2023-02-28T07:30:19;5.90;;;3.93;;
16735;SDS011;17990;49.548;9.730;2023-02-28T07:32:47;6.60;;;4.03;;
16735;SDS011;17990;49.548;9.730;2023-02-28T07:35:15;10.40;;;4.00;;
16735;SDS011;17990;49.548;9.730;2023-02-28T07:37:42;12.73;;;4.47;;
16735;SDS011;17990;49.548;9.730;2023-02-28T07:40:10;6.70;;;4.03;;
16735;SDS011;17990;49.548;9.730;2023-02-28T07:42:38;7.33;;;3.80;;
16735;SDS011;17990;49.548;9.730;2023-02-28T07:45:06;4.83;;;3.30;;
16735;SDS011;17990;49.548;9.730;2023-02-28T07:47:36;6.63;;;3.63;;
16735;SDS011;17990;49.548;9.730;2023-02-28T07:50:05;8.13;;;4.60;;
16735;SDS011;17990;49.548;9.730;2023-02-28T07:52:35;5.77;;;3.53;;
16735;SDS011;17990;49.548;9.730;2023-02-28T07:55:03;5.57;;;3.93;;
16735;SDS011;17990;49.548;9.730;2023-02-28T07:57:31;10.10;;;6.13;;
16735;SDS011;17990;49.548;9.730;2023-02-28T07:59:59;9.87;;;3.43;;
16735;SDS011;17990;49.548;9.730;2023-02-28T08:02:26;7.23;;;3.97;;
16735;SDS011;17990;49.548;9.730;2023-02-28T08:04:53;8.00;;;4.50;;
16735;SDS011;17990;49.548;9.730;2023-02-28T08:07:22;8.07;;;3.20;;
16735;SDS011;17990;49.548;9.730;2023-02-28T08:09:50;5.70;;;3.53;;
16735;SDS011;17990;49.548;9.730;2023-02-28T08:12:17;8.77;;;4.30;;
16735;SDS011;17990;49.548;9.730;2023-02-28T08:14:44;7.03;;;4.50;;
16735;SDS011;17990;49.548;9.730;2023-02-28T08:17:12;7.10;;;4.40;;
16735;SDS011;17990;49.548;9.730;2023-02-28T08:19:39;8.37;;;5.03;;
16735;SDS011;17990;49.548;9.730;2023-02-28T08:22:06;12.77;;;4.90;;
16735;SDS011;17990;49.548;9.730;2023-02-28T08:24:34;8.20;;;4.30;;
16735;SDS011;17990;49.548;9.730;2023-02-28T08:27:02;7.40;;;4.37;;
16735;SDS011;17990;49.548;9.730;2023-02-28T08:29:29;6.03;;;4.00;;
16735;SDS011;17990;49.548;9.730;2023-02-28T08:31:56;6.60;;;3.97;;
16735;SDS011;17990;49.548;9.730;2023-02-28T08:34:24;9.63;;;3.93;;
16735;SDS011;17990;49.548;9.730;2023-02-28T08:36:51;7.50;;;4.47;;
16735;SDS011;17990;49.548;9.730;2023-02-28T08:39:18;6.53;;;5.00;;
16735;SDS011;17990;49.548;9.730;2023-02-28T08:41:47;6.97;;;3.93;;
16735;SDS011;17990;49.548;9.730;2023-02-28T08:44:14;5.77;;;4.10;;
16735;SDS011;17990;49.548;9.730;2023-02-28T08:46:41;9.47;;;4.50;;
16735;SDS011;17990;49.548;9.730;2023-02-28T08:49:09;12.47;;;6.27;;
16735;SDS011;17990;49.548;9.730;2023-02-28T08:51:38;12.77;;;8.10;;
16735;SDS011;17990;49.548;9.730;2023-02-28T08:54:05;9.97;;;4.87;;
16735;SDS011;17990;49.548;9.730;2023-02-28T08:56:34;10.03;;;5.00;;
16735;SDS011;17990;49.548;9.730;2023-02-28T08:59:02;6.63;;;4.40;;
16735;SDS011;17990;49.548;9.730;2023-02-28T09:01:30;7.53;;;4.80;;
16735;SDS011;17990;49.548;9.730;2023-02-28T09:03:57;6.47;;;4.40;;
16735;SDS011;17990;49.548;9.730;2023-02-28T09:06:25;11.23;;;4.87;;
16735;SDS011;17990;49.548;9.730;2023-02-28T09:08:53;8.00;;;4.70;;
16735;SDS011;17990;49.548;9.730;2023-02-28T09:11:24;6.07;;;4.40;;
16735;SDS011;17990;49.548;9.730;2023-02-28T09:13:51;7.83;;;4.43;;
16735;SDS011;17990;49.548;9.730;2023-02-28T09:16:21;12.53;;;6.70;;
16735;SDS011;17990;49.548;9.730;2023-02-28T09:18:48;7.43;;;4.67;;
16735;SDS011;17990;49.548;9.730;2023-02-28T09:21:16;11.50;;;5.13;;
16735;SDS011;17990;49.548;9.730;2023-02-28T09:23:45;15.33;;;5.27;;
16735;SDS011;17990;49.548;9.730;2023-02-28T09:26:13;8.93;;;5.40;;
16735;SDS011;17990;49.548;9.730;2023-02-28T09:28:41;14.00;;;5.50;;
16735;SDS011;17990;49.548;9.730;2023-02-28T09:31:11;10.37;;;6.00;;
16735;SDS011;17990;49.548;9.730;2023-02-28T09:33:40;9.33;;;5.80;;
16735;SDS011;17990;49.548;9.730;2023-02-28T09:36:08;8.17;;;5.70;;
16735;SDS011;17990;49.548;9.730;2023-02-28T09:38:35;8.20;;;5.33;;
16735;SDS011;17990;49.548;9.730;2023-02-28T09:41:03;10.67;;;6.33;;
16735;SDS011;17990;49.548;9.730;2023-02-28T09:43:38;6.97;;;5.20;;
16735;SDS011;17990;49.548;9.730;2023-02-28T09:46:12;8.67;;;5.10;;
16735;SDS011;17990;49.548;9.730;2023-02-28T09:48:47;10.67;;;5.20;;
16735;SDS011;17990;49.548;9.730;2023-02-28T09:51:18;8.90;;;5.57;;
16735;SDS011;17990;49.548;9.730;2023-02-28T09:53:56;7.97;;;5.33;;
16735;SDS011;17990;49.548;9.730;2023-02-28T09:56:24;7.10;;;5.40;;
16735;SDS011;17990;49.548;9.730;2023-02-28T09:58:53;50.93;;;8.03;;
16735;SDS011;17990;49.548;9.730;2023-02-28T10:01:24;8.17;;;5.50;;
16735;SDS011;17990;49.548;9.730;2023-02-28T10:03:56;13.40;;;5.80;;
16735;SDS011;17990;49.548;9.730;2023-02-28T10:06:28;8.20;;;5.50;;
16735;SDS011;17990;49.548;9.730;2023-02-28T10:08:58;7.33;;;5.37;;
16735;SDS011;17990;49.548;9.730;2023-02-28T10:11:28;8.33;;;5.43;;
16735;SDS011;17990;49.548;9.730;2023-02-28T10:13:59;7.83;;;5.23;;
16735;SDS011;17990;49.548;9.730;2023-02-28T10:16:30;7.67;;;5.40;;
16735;SDS011;17990;49.548;9.730;2023-02-28T10:19:03;9.77;;;5.40;;
16735;SDS011;17990;49.548;9.730;2023-02-28T10:21:35;9.20;;;5.43;;
16735;SDS011;17990;49.548;9.730;2023-02-28T10:24:05;8.83;;;6.03;;
16735;SDS011;17990;49.548;9.730;2023-02-28T10:26:42;8.20;;;5.13;;
16735;SDS011;17990;49.548;9.730;2023-02-28T10:29:11;9.53;;;5.60;;
16735;SDS011;17990;49.548;9.730;2023-02-28T10:31:38;8.00;;;5.43;;
16735;SDS011;17990;49.548;9.730;2023-02-28T10:34:07;8.53;;;6.03;;
16735;SDS011;17990;49.548;9.730;2023-02-28T10:36:35;12.10;;;5.97;;
16735;SDS011;17990;49.548;9.730;2023-02-28T10:39:02;9.23;;;5.57;;
16735;SDS011;17990;49.548;9.730;2023-02-28T10:42:05;12.93;;;7.20;;
16735;SDS011;17990;49.548;9.730;2023-02-28T10:44:46;10.87;;;6.23;;
16735;SDS011;17990;49.548;9.730;2023-02-28T10:47:14;8.33;;;5.83;;
16735;SDS011;17990;49.548;9.730;2023-02-28T10:49:45;12.80;;;7.17;;
16735;SDS011;17990;49.548;9.730;2023-02-28T10:52:13;12.30;;;6.70;;
16735;SDS011;17990;49.548;9.730;2023-02-28T10:54:42;7.40;;;5.57;;
16735;SDS011;17990;49.548;9.730;2023-02-28T10:57:15;9.00;;;5.80;;
16735;SDS011;17990;49.548;9.730;2023-02-28T10:59:44;13.47;;;6.50;;
16735;SDS011;17990;49.548;9.730;2023-02-28T11:02:31;8.33;;;5.13;;
16735;SDS011;17990;49.548;9.730;2023-02-28T11:04:59;10.23;;;6.60;;
16735;SDS011;17990;49.548;9.730;2023-02-28T11:07:26;9.67;;;5.87;;
16735;SDS011;17990;49.548;9.730;2023-02-28T11:09:56;8.67;;;5.60;;
16735;SDS011;17990;49.548;9.730;2023-02-28T11:12:25;12.30;;;7.27;;
16735;SDS011;17990;49.548;9.730;2023-02-28T11:14:54;11.73;;;7.33;;
16735;SDS011;17990;49.548;9.730;2023-02-28T11:17:24;10.47;;;6.43;;
16735;SDS011;17990;49.548;9.730;2023-02-28T11:19:53;11.67;;;6.43;;
16735;SDS011;17990;49.548;9.730;2023-02-28T11:22:21;7.60;;;5.67;;
16735;SDS011;17990;49.548;9.730;2023-02-28T11:24:53;11.10;;;6.73;;
16735;SDS011;17990;49.548;9.730;2023-02-28T11:27:25;10.67;;;6.30;;
16735;SDS011;17990;49.548;9.730;2023-02-28T11:30:11;7.60;;;5.73;;
16735;SDS011;17990;49.548;9.730;2023-02-28T11:32:50;13.23;;;6.53;;
16735;SDS011;17990;49.548;9.730;2023-02-28T11:35:19;11.40;;;6.40;;
16735;SDS011;17990;49.548;9.730;2023-02-28T11:37:49;8.37;;;5.80;;
16735;SDS011;17990;49.548;9.730;2023-02-28T11:40:18;13.03;;;6.70;;
16735;SDS011;17990;49.548;9.730;2023-02-28T11:42:53;9.83;;;6.33;;
16735;SDS011;17990;49.548;9.730;2023-02-28T11:45:30;7.37;;;5.67;;
16735;SDS011;17990;49.548;9.730;2023-02-28T11:48:09;10.00;;;5.70;;
16735;SDS011;17990;49.548;9.730;2023-02-28T11:50:48;13.87;;;7.90;;
16735;SDS011;17990;49.548;9.730;2023-02-28T11:53:22;6.57;;;5.10;;
16735;SDS011;17990;49.548;9.730;2023-02-28T11:56:09;9.80;;;6.00;;
16735;SDS011;17990;49.548;9.730;2023-02-28T11:58:42;8.93;;;5.77;;
16735;SDS011;17990;49.548;9.730;2023-02-28T12:01:18;7.47;;;5.80;;
16735;SDS011;17990;49.548;9.730;2023-02-28T12:03:57;8.60;;;5.60;;
16735;SDS011;17990;49.548;9.730;2023-02-28T12:06:30;9.27;;;6.00;;
16735;SDS011;17990;49.548;9.730;2023-02-28T12:09:02;7.67;;;5.47;;
16735;SDS011;17990;49.548;9.730;2023-02-28T12:11:42;8.97;;;6.10;;
16735;SDS011;17990;49.548;9.730;2023-02-28T12:14:21;10.83;;;5.97;;
16735;SDS011;17990;49.548;9.730;2023-02-28T12:16:57;6.73;;;5.43;;
16735;SDS011;17990;49.548;9.730;2023-02-28T12:19:31;9.53;;;5.60;;
16735;SDS011;17990;49.548;9.730;2023-02-28T12:22:12;11.70;;;6.30;;
16735;SDS011;17990;49.548;9.730;2023-02-28T12:24:51;9.20;;;5.90;;
16735;SDS011;17990;49.548;9.730;2023-02-28T12:27:27;10.73;;;5.90;;
16735;SDS011;17990;49.548;9.730;2023-02-28T12:29:56;9.10;;;5.73;;
16735;SDS011;17990;49.548;9.730;2023-02-28T12:32:29;8.33;;;6.10;;
16735;SDS011;17990;49.548;9.730;2023-02-28T12:35:00;8.40;;;5.50;;
16735;SDS011;17990;49.548;9.730;2023-02-28T12:37:29;7.40;;;5.60;;
16735;SDS011;17990;49.548;9.730;2023-02-28T12:40:00;7.90;;;5.53;;
16735;SDS011;17990;49.548;9.730;2023-02-28T12:42:32;9.30;;;5.80;;
16735;SDS011;17990;49.548;9.730;2023-02-28T12:45:04;7.67;;;5.80;;
16735;SDS011;17990;49.548;9.730;2023-02-28T12:47:37;10.63;;;5.77;;
16735;SDS011;17990;49.548;9.730;2023-02-28T12:50:07;8.03;;;5.57;;
16735;SDS011;17990;49.548;9.730;2023-02-28T12:52:37;8.83;;;5.67;;
16735;SDS011;17990;49.548;9.730;2023-02-28T12:55:08;8.30;;;5.50;;
16735;SDS011;17990;49.548;9.730;2023-02-28T12:57:42;8.30;;;5.90;;
16735;SDS011;17990;49.548;9.730;2023-02-28T13:00:15;8.87;;;5.77;;
16735;SDS011;17990;49.548;9.730;2023-02-28T13:02:51;9.50;;;6.00;;
16735;SDS011;17990;49.548;9.730;2023-02-28T13:05:37;8.73;;;5.70;;
16735;SDS011;17990;49.548;9.730;2023-02-28T13:08:17;7.40;;;5.03;;
16735;SDS011;17990;49.548;9.730;2023-02-28T13:10:56;9.83;;;5.90;;
16735;SDS011;17990;49.548;9.730;2023-02-28T13:13:25;8.63;;;5.70;;
16735;SDS011;17990;49.548;9.730;2023-02-28T13:16:04;12.50;;;8.67;;
16735;SDS011;17990;49.548;9.730;2023-02-28T13:18:33;9.33;;;6.27;;
16735;SDS011;17990;49.548;9.730;2023-02-28T13:21:02;9.13;;;5.63;;
16735;SDS011;17990;49.548;9.730;2023-02-28T13:23:39;9.23;;;5.80;;
16735;SDS011;17990;49.548;9.730;2023-02-28T13:26:23;11.07;;;5.97;;
16735;SDS011;17990;49.548;9.730;2023-02-28T13:29:31;9.27;;;5.90;;
16735;SDS011;17990;49.548;9.730;2023-02-28T13:37:42;15.37;;;6.43;;
16735;SDS011;17990;49.548;9.730;2023-02-28T13:40:29;11.90;;;6.60;;
16735;SDS011;17990;49.548;9.730;2023-02-28T13:43:02;7.20;;;5.83;;
16735;SDS011;17990;49.548;9.730;2023-02-28T13:45:31;7.73;;;5.33;;
16735;SDS011;17990;49.548;9.730;2023-02-28T13:48:03;9.97;;;5.60;;
16735;SDS011;17990;49.548;9.730;2023-02-28T13:50:41;10.03;;;5.90;;
16735;SDS011;17990;49.548;9.730;2023-02-28T13:53:19;10.03;;;6.23;;
16735;SDS011;17990;49.548;9.730;2023-02-28T13:56:00;9.77;;;6.30;;
16735;SDS011;17990;49.548;9.730;2023-02-28T13:58:35;18.13;;;6.53;;
16735;SDS011;17990;49.548;9.730;2023-02-28T14:04:12;9.07;;;5.80;;
16735;SDS011;17990;49.548;9.730;2023-02-28T14:07:15;8.63;;;6.47;;
16735;SDS011;17990;49.548;9.730;2023-02-28T14:09:45;10.80;;;6.37;;
16735;SDS011;17990;49.548;9.730;2023-02-28T14:15:25;9.27;;;6.17;;
16735;SDS011;17990;49.548;9.730;2023-02-28T14:18:11;9.27;;;5.73;;
16735;SDS011;17990;49.548;9.730;2023-02-28T14:20:47;11.83;;;6.33;;
16735;SDS011;17990;49.548;9.730;2023-02-28T14:23:18;10.63;;;7.00;;
16735;SDS011;17990;49.548;9.730;2023-02-28T14:25:58;10.27;;;6.50;;
16735;SDS011;17990;49.548;9.730;2023-02-28T14:28:36;11.97;;;6.90;;
16735;SDS011;17990;49.548;9.730;2023-02-28T14:31:10;8.10;;;5.97;;
16735;SDS011;17990;49.548;9.730;2023-02-28T14:33:45;8.73;;;5.83;;
16735;SDS011;17990;49.548;9.730;2023-02-28T14:36:18;7.87;;;5.70;;
16735;SDS011;17990;49.548;9.730;2023-02-28T14:38:48;8.03;;;6.03;;
16735;SDS011;17990;49.548;9.730;2023-02-28T14:41:20;13.07;;;6.47;;
16735;SDS011;17990;49.548;9.730;2023-02-28T14:43:52;28.73;;;14.23;;
16735;SDS011;17990;49.548;9.730;2023-02-28T14:46:22;9.07;;;6.47;;
16735;SDS011;17990;49.548;9.730;2023-02-28T14:48:54;8.43;;;5.20;;
16735;SDS011;17990;49.548;9.730;2023-02-28T14:51:21;10.30;;;5.80;;
16735;SDS011;17990;49.548;9.730;2023-02-28T14:53:50;8.57;;;6.33;;
16735;SDS011;17990;49.548;9.730;2023-02-28T14:56:19;6.90;;;5.27;;
16735;SDS011;17990;49.548;9.730;2023-02-28T14:58:52;11.77;;;7.03;;
16735;SDS011;17990;49.548;9.730;2023-02-28T15:01:20;10.97;;;6.83;;
16735;SDS011;17990;49.548;9.730;2023-02-28T15:03:48;9.13;;;5.60;;
16735;SDS011;17990;49.548;9.730;2023-02-28T15:06:26;7.20;;;5.63;;
16735;SDS011;17990;49.548;9.730;2023-02-28T15:09:06;8.27;;;5.80;;
16735;SDS011;17990;49.548;9.730;2023-02-28T15:11:35;9.30;;;6.10;;
16735;SDS011;17990;49.548;9.730;2023-02-28T15:14:03;7.50;;;5.30;;
16735;SDS011;17990;49.548;9.730;2023-02-28T15:16:31;9.00;;;5.70;;
16735;SDS011;17990;49.548;9.730;2023-02-28T15:19:02;9.10;;;6.17;;
16735;SDS011;17990;49.548;9.730;2023-02-28T15:21:31;8.73;;;6.23;;
16735;SDS011;17990;49.548;9.730;2023-02-28T15:24:01;11.30;;;6.20;;